createdAt,value
2018-12-25T00:01:20.395Z,59.20
2018-12-25T00:03:48.468Z,58.60
2018-12-25T00:06:15.611Z,58.90
2018-12-25T00:08:43.147Z,58.80
2018-12-25T00:11:10.699Z,58.70
2018-12-25T00:13:37.859Z,58.70
2018-12-25T00:16:05.355Z,59.10
2018-12-25T00:18:32.939Z,58.80
2018-12-25T00:21:01.265Z,58.90
2018-12-25T00:23:28.836Z,59.10
2018-12-25T00:25:56.812Z,59.30
2018-12-25T00:28:24.173Z,59.20
2018-12-25T00:30:51.665Z,59.20
2018-12-25T00:33:18.695Z,59.10
2018-12-25T00:35:46.151Z,59.20
2018-12-25T00:38:13.035Z,59.30
2018-12-25T00:40:40.067Z,59.40
2018-12-25T00:43:08.219Z,59.50
2018-12-25T00:45:36.064Z,59.50
2018-12-25T00:48:03.368Z,59.30
2018-12-25T00:50:30.415Z,59.40
2018-12-25T00:52:57.664Z,59.40
2018-12-25T00:55:25.825Z,59.50
2018-12-25T00:57:53.019Z,59.60
2018-12-25T01:00:20.216Z,59.60
2018-12-25T01:02:48.131Z,59.60
2018-12-25T01:05:15.601Z,59.30
2018-12-25T01:07:42.613Z,59.20
2018-12-25T01:10:10.280Z,59.10
2018-12-25T01:12:38.403Z,59.00
2018-12-25T01:15:06.806Z,58.90
2018-12-25T01:17:33.808Z,59.20
2018-12-25T01:20:01.393Z,59.00
2018-12-25T01:22:28.828Z,59.00
2018-12-25T01:24:56.732Z,59.30
2018-12-25T01:27:23.989Z,59.60
2018-12-25T01:29:51.043Z,59.20
2018-12-25T01:32:18.352Z,59.80
2018-12-25T01:34:45.355Z,60.50
2018-12-25T01:37:12.777Z,60.40
2018-12-25T01:39:40.244Z,60.80
2018-12-25T01:42:08.348Z,60.50
2018-12-25T01:44:35.989Z,60.80
2018-12-25T01:47:03.229Z,61.10
2018-12-25T01:49:31.849Z,60.90
2018-12-25T01:51:59.243Z,60.60
2018-12-25T01:54:26.916Z,61.20
2018-12-25T01:56:54.190Z,61.40
2018-12-25T01:59:21.954Z,61.40
2018-12-25T02:01:50.128Z,61.70
2018-12-25T02:04:18.294Z,61.90
2018-12-25T02:06:45.839Z,61.60
2018-12-25T02:09:13.231Z,61.80
2018-12-25T02:11:40.719Z,61.90
2018-12-25T02:14:08.310Z,62.00
2018-12-25T02:16:36.692Z,62.30
2018-12-25T02:19:04.510Z,62.60
2018-12-25T02:21:31.821Z,62.50
2018-12-25T02:23:59.107Z,62.80
2018-12-25T02:26:26.946Z,63.10
2018-12-25T02:28:54.999Z,63.20
2018-12-25T02:31:22.460Z,63.30
2018-12-25T02:33:50.419Z,63.10
2018-12-25T02:36:18.332Z,63.20
2018-12-25T02:38:46.104Z,63.30
2018-12-25T02:41:14.147Z,63.60
2018-12-25T02:43:41.538Z,63.60
2018-12-25T02:46:09.401Z,63.20
2018-12-25T02:48:36.531Z,63.70
2018-12-25T02:51:05.056Z,63.70
2018-12-25T02:53:32.081Z,63.50
2018-12-25T02:55:59.627Z,63.80
2018-12-25T02:58:28.037Z,63.80
2018-12-25T03:00:55.653Z,64.00
2018-12-25T03:03:23.256Z,64.40
2018-12-25T03:05:51.198Z,63.90
2018-12-25T03:08:20.169Z,63.90
2018-12-25T03:10:47.931Z,64.90
2018-12-25T03:13:15.491Z,63.90
2018-12-25T03:15:42.666Z,63.70
2018-12-25T03:18:09.923Z,63.80
2018-12-25T03:20:37.288Z,64.00
2018-12-25T03:23:04.460Z,64.10
2018-12-25T03:25:31.975Z,63.80
2018-12-25T03:27:59.033Z,64.00
2018-12-25T03:30:26.450Z,64.00
2018-12-25T03:32:54.157Z,64.40
2018-12-25T03:35:21.443Z,64.00
2018-12-25T03:37:49.085Z,64.40
2018-12-25T03:40:16.543Z,64.20
2018-12-25T03:42:43.958Z,64.30
2018-12-25T03:45:10.961Z,64.00
2018-12-25T03:47:38.410Z,64.20
2018-12-25T03:50:10.768Z,64.40
2018-12-25T03:52:37.772Z,64.00
2018-12-25T03:55:05.645Z,64.20
2018-12-25T03:57:32.991Z,64.10
2018-12-25T04:00:00.573Z,64.20
2018-12-25T04:02:29.659Z,64.30
2018-12-25T04:04:57.388Z,64.20
2018-12-25T04:07:24.809Z,64.10
2018-12-25T04:09:52.155Z,64.20
2018-12-25T04:12:20.133Z,64.30
2018-12-25T04:14:47.137Z,64.60
2018-12-25T04:17:14.136Z,64.40
2018-12-25T04:19:41.605Z,64.70
2018-12-25T04:22:09.470Z,65.30
2018-12-25T04:24:40.422Z,64.70
2018-12-25T04:27:08.291Z,64.80
2018-12-25T04:29:36.384Z,64.90
2018-12-25T04:32:04.212Z,64.90
2018-12-25T04:34:32.524Z,65.30
2018-12-25T04:36:59.575Z,64.90
2018-12-25T04:39:26.885Z,64.60
2018-12-25T04:41:54.184Z,64.60
2018-12-25T04:44:22.344Z,64.90
2018-12-25T04:46:49.769Z,65.00
2018-12-25T04:49:16.801Z,65.10
2018-12-25T04:51:44.328Z,65.00
2018-12-25T04:54:12.440Z,65.10
2018-12-25T04:56:39.643Z,65.30
2018-12-25T04:59:07.368Z,64.70
2018-12-25T05:01:34.392Z,64.70
2018-12-25T05:04:02.674Z,64.40
2018-12-25T05:06:29.828Z,64.80
2018-12-25T05:08:56.791Z,64.80
2018-12-25T05:11:24.388Z,64.20
2018-12-25T05:13:52.164Z,65.10
2018-12-25T05:16:19.335Z,65.00
2018-12-25T05:18:46.821Z,65.20
2018-12-25T05:21:13.851Z,65.00
2018-12-25T05:23:41.703Z,64.70
2018-12-25T05:26:09.741Z,65.00
2018-12-25T05:28:37.644Z,65.10
2018-12-25T05:31:04.674Z,65.70
2018-12-25T05:33:32.048Z,65.30
2018-12-25T05:35:59.291Z,65.50
2018-12-25T05:38:27.059Z,65.60
2018-12-25T05:40:55.406Z,65.30
2018-12-25T05:43:22.686Z,65.70
2018-12-25T05:45:50.200Z,65.10
2018-12-25T05:48:17.360Z,66.20
2018-12-25T05:50:46.895Z,65.90
2018-12-25T05:53:13.443Z,65.70
2018-12-25T05:55:40.875Z,65.70
2018-12-25T05:58:08.199Z,65.50
2018-12-25T06:00:35.839Z,65.70
2018-12-25T06:03:03.405Z,65.80
2018-12-25T06:05:30.667Z,66.20
2018-12-25T06:07:58.287Z,66.50
2018-12-25T06:10:25.828Z,66.40
2018-12-25T06:12:53.779Z,66.80
2018-12-25T06:15:21.277Z,66.80
2018-12-25T06:17:49.076Z,67.10
2018-12-25T06:20:16.107Z,67.00
2018-12-25T06:22:44.012Z,66.80
2018-12-25T06:25:11.817Z,66.00
2018-12-25T06:27:39.681Z,66.30
2018-12-25T06:30:06.715Z,66.20
2018-12-25T06:32:34.144Z,65.50
2018-12-25T06:35:01.789Z,65.60
2018-12-25T06:37:29.188Z,66.20
2018-12-25T06:39:56.250Z,65.50
2018-12-25T06:42:23.913Z,65.80
2018-12-25T06:44:50.898Z,65.40
2018-12-25T06:47:19.647Z,65.00
2018-12-25T06:49:47.590Z,64.60
2018-12-25T06:52:16.380Z,64.70
2018-12-25T06:54:43.787Z,64.80
2018-12-25T06:57:11.752Z,65.10
2018-12-25T06:59:39.522Z,65.30
2018-12-25T07:02:08.050Z,64.80
2018-12-25T07:04:35.467Z,64.90
2018-12-25T07:07:02.987Z,65.00
2018-12-25T07:09:30.143Z,64.70
2018-12-25T07:11:57.043Z,65.50
2018-12-25T07:14:24.716Z,64.20
2018-12-25T07:16:51.891Z,64.20
2018-12-25T07:19:19.336Z,64.40
2018-12-25T07:21:47.079Z,64.50
2018-12-25T07:24:14.120Z,64.00
2018-12-25T07:26:44.759Z,64.00
2018-12-25T07:29:12.232Z,64.20
2018-12-25T07:31:40.411Z,65.20
2018-12-25T07:34:07.916Z,65.10
2018-12-25T07:36:35.978Z,65.50
2018-12-25T07:39:04.919Z,66.70
2018-12-25T07:41:33.027Z,66.00
2018-12-25T07:44:01.318Z,66.40
2018-12-25T07:46:28.604Z,66.40
2018-12-25T07:48:57.003Z,66.50
2018-12-25T07:51:24.104Z,66.90
2018-12-25T07:53:52.179Z,66.60
2018-12-25T07:56:20.003Z,67.20
2018-12-25T07:58:47.011Z,67.50
2018-12-25T08:01:14.592Z,67.20
2018-12-25T08:03:42.060Z,66.90
2018-12-25T08:06:09.808Z,67.30
2018-12-25T08:08:38.050Z,67.60
2018-12-25T08:11:05.238Z,67.80
2018-12-25T08:13:32.392Z,67.40
2018-12-25T08:15:59.919Z,67.70
2018-12-25T08:18:27.525Z,67.50
2018-12-25T08:20:54.929Z,67.50
2018-12-25T08:23:22.606Z,67.50
2018-12-25T08:25:49.630Z,67.10
2018-12-25T08:28:19.000Z,67.20
2018-12-25T08:30:46.604Z,67.00
2018-12-25T08:33:14.048Z,67.40
2018-12-25T08:35:41.401Z,67.30
2018-12-25T08:38:08.828Z,67.50
2018-12-25T08:40:36.059Z,67.60
2018-12-25T08:43:03.376Z,67.70
2018-12-25T08:45:31.276Z,67.60
2018-12-25T08:47:58.625Z,67.30
2018-12-25T08:50:25.631Z,67.50
2018-12-25T08:52:52.841Z,67.40
2018-12-25T08:55:20.796Z,67.40
2018-12-25T08:57:48.360Z,67.60
2018-12-25T09:00:15.505Z,67.50
2018-12-25T09:02:43.456Z,67.70
2018-12-25T09:05:10.589Z,67.20
2018-12-25T09:07:40.861Z,67.20
2018-12-25T09:10:08.464Z,67.10
2018-12-25T09:12:36.841Z,67.90
2018-12-25T09:15:04.432Z,67.50
2018-12-25T09:17:32.086Z,67.50
2018-12-25T09:19:59.215Z,67.10
2018-12-25T09:22:27.231Z,67.70
2018-12-25T09:24:54.419Z,67.60
2018-12-25T09:27:21.867Z,67.30
2018-12-25T09:29:49.710Z,67.20
2018-12-25T09:32:17.843Z,68.30
2018-12-25T09:34:45.463Z,67.50
2018-12-25T09:37:12.500Z,67.30
2018-12-25T09:39:41.023Z,66.90
2018-12-25T09:42:08.334Z,67.20
2018-12-25T09:44:38.444Z,67.30
2018-12-25T09:47:05.596Z,67.30
2018-12-25T09:49:33.033Z,67.30
2018-12-25T09:52:00.468Z,67.70
2018-12-25T09:54:27.960Z,67.40
2018-12-25T09:56:55.711Z,67.30
2018-12-25T09:59:23.456Z,67.50
2018-12-25T10:01:52.638Z,67.30
2018-12-25T10:04:20.670Z,67.30
2018-12-25T10:06:47.683Z,67.70
2018-12-25T10:09:14.982Z,67.80
2018-12-25T10:11:44.624Z,67.50
2018-12-25T10:14:10.903Z,67.40
2018-12-25T10:16:38.471Z,67.50
2018-12-25T10:19:06.046Z,67.60
2018-12-25T10:21:33.119Z,67.80
2018-12-25T10:24:01.200Z,68.00
2018-12-25T10:26:28.877Z,68.00
2018-12-25T10:28:56.303Z,68.10
2018-12-25T10:31:23.574Z,68.20
2018-12-25T10:33:50.971Z,68.00
2018-12-25T10:36:18.309Z,68.30
2018-12-25T10:38:46.837Z,68.70
2018-12-25T10:41:14.035Z,68.60
2018-12-25T10:43:41.606Z,68.00
2018-12-25T10:46:09.416Z,68.10
2018-12-25T10:48:36.340Z,68.10
2018-12-25T10:51:03.455Z,68.10
2018-12-25T10:53:31.171Z,68.80
2018-12-25T10:55:58.699Z,68.10
2018-12-25T10:58:26.539Z,68.20
2018-12-25T11:00:58.575Z,67.70
2018-12-25T11:03:26.304Z,67.40
2018-12-25T11:05:53.583Z,67.90
2018-12-25T11:08:21.087Z,68.10
2018-12-25T11:10:48.609Z,68.00
2018-12-25T11:13:15.664Z,68.10
2018-12-25T11:15:42.884Z,68.00
2018-12-25T11:18:10.375Z,68.50
2018-12-25T11:20:37.670Z,68.10
2018-12-25T11:23:05.378Z,68.30
2018-12-25T11:25:32.543Z,68.10
2018-12-25T11:28:00.784Z,68.50
2018-12-25T11:30:28.033Z,68.60
2018-12-25T11:32:55.042Z,69.20
2018-12-25T11:35:22.683Z,69.30
2018-12-25T11:37:50.028Z,69.60
2018-12-25T11:40:20.331Z,67.50
2018-12-25T11:42:47.537Z,65.60
2018-12-25T11:45:15.251Z,66.20
2018-12-25T11:47:42.200Z,64.10
2018-12-25T11:50:09.361Z,63.70
2018-12-25T11:52:36.475Z,60.90
2018-12-25T11:55:04.744Z,61.30
2018-12-25T11:57:31.928Z,60.40
2018-12-25T11:59:59.333Z,60.40
2018-12-25T12:02:29.600Z,60.30
2018-12-25T12:04:58.124Z,60.20
2018-12-25T12:07:25.029Z,60.70
2018-12-25T12:09:52.191Z,61.10
2018-12-25T12:12:19.316Z,61.10
2018-12-25T12:14:46.321Z,60.50
2018-12-25T12:17:13.787Z,60.50
2018-12-25T12:19:41.035Z,60.20
2018-12-25T12:22:08.677Z,60.40
2018-12-25T12:24:36.026Z,59.70
2018-12-25T12:27:03.485Z,59.20
2018-12-25T12:29:30.696Z,59.80
2018-12-25T12:31:58.148Z,60.60
2018-12-25T12:34:25.422Z,59.60
2018-12-25T12:36:52.668Z,60.00
2018-12-25T12:39:20.291Z,60.60
2018-12-25T12:41:47.767Z,60.00
2018-12-25T12:44:15.496Z,60.50
2018-12-25T12:46:42.732Z,60.80
2018-12-25T12:49:10.613Z,60.90
2018-12-25T12:51:38.188Z,60.40
2018-12-25T12:54:05.592Z,61.50
2018-12-25T12:56:33.627Z,61.50
2018-12-25T12:59:00.808Z,61.30
2018-12-25T13:01:28.356Z,61.50
2018-12-25T13:03:55.991Z,60.70
2018-12-25T13:06:23.054Z,59.70
2018-12-25T13:08:50.589Z,60.30
2018-12-25T13:11:24.147Z,60.70
2018-12-25T13:13:51.666Z,62.60
2018-12-25T13:16:19.955Z,62.90
2018-12-25T13:18:47.775Z,63.20
2018-12-25T13:21:15.283Z,62.80
2018-12-25T13:23:42.963Z,62.50
2018-12-25T13:26:10.004Z,64.00
2018-12-25T13:28:37.430Z,64.40
2018-12-25T13:31:04.820Z,64.30
2018-12-25T13:33:32.171Z,64.80
2018-12-25T13:35:59.080Z,63.80
2018-12-25T13:38:26.233Z,64.40
2018-12-25T13:40:53.188Z,64.00
2018-12-25T13:43:20.228Z,63.80
2018-12-25T13:45:47.732Z,64.30
2018-12-25T13:48:14.624Z,64.60
2018-12-25T13:50:41.794Z,64.00
2018-12-25T13:53:08.948Z,65.40
2018-12-25T13:55:35.817Z,63.60
2018-12-25T13:58:03.139Z,63.50
2018-12-25T14:00:31.087Z,64.10
2018-12-25T14:02:58.773Z,62.90
2018-12-25T14:05:25.668Z,62.30
2018-12-25T14:07:53.143Z,61.90
2018-12-25T14:10:20.448Z,61.10
2018-12-25T14:12:48.755Z,62.00
2018-12-25T14:15:16.587Z,59.60
2018-12-25T14:17:44.423Z,59.80
2018-12-25T14:20:11.687Z,60.10
2018-12-25T14:22:38.999Z,59.50
2018-12-25T14:25:07.908Z,59.60
2018-12-25T14:27:35.016Z,59.60
2018-12-25T14:30:02.521Z,60.30
2018-12-25T14:32:31.076Z,59.80
2018-12-25T14:34:59.147Z,59.10
2018-12-25T14:37:27.000Z,59.20
2018-12-25T14:39:54.413Z,58.70
2018-12-25T14:42:22.443Z,59.20
2018-12-25T14:44:50.575Z,59.70
2018-12-25T14:47:18.893Z,60.10
2018-12-25T14:49:45.942Z,58.50
2018-12-25T14:52:13.403Z,59.10
2018-12-25T14:54:41.223Z,60.00
2018-12-25T14:57:11.669Z,59.20
2018-12-25T14:59:39.519Z,58.50
2018-12-25T15:02:06.944Z,59.30
2018-12-25T15:04:34.647Z,59.90
2018-12-25T15:07:02.377Z,59.60
2018-12-25T15:09:29.419Z,59.60
2018-12-25T15:11:57.936Z,59.40
2018-12-25T15:14:26.508Z,59.80
2018-12-25T15:16:53.919Z,59.50
2018-12-25T15:19:22.563Z,60.30
2018-12-25T15:21:49.650Z,60.80
2018-12-25T15:24:16.578Z,60.90
2018-12-25T15:26:45.071Z,60.70
2018-12-25T15:29:12.107Z,61.10
2018-12-25T15:31:39.777Z,61.30
2018-12-25T15:34:07.295Z,61.20
2018-12-25T15:36:34.879Z,62.10
2018-12-25T15:39:03.531Z,62.30
2018-12-25T15:41:31.551Z,62.30
2018-12-25T15:43:59.484Z,62.30
2018-12-25T15:46:27.003Z,62.40
2018-12-25T15:48:54.560Z,62.60
2018-12-25T15:51:22.123Z,62.80
2018-12-25T15:53:50.468Z,63.00
2018-12-25T15:56:18.347Z,62.80
2018-12-25T15:58:45.426Z,63.30
2018-12-25T16:01:12.396Z,63.40
2018-12-25T16:03:39.697Z,63.10
2018-12-25T16:06:07.136Z,63.20
2018-12-25T16:08:34.711Z,63.20
2018-12-25T16:11:02.703Z,63.10
2018-12-25T16:13:30.427Z,62.80
2018-12-25T16:15:57.963Z,63.60
2018-12-25T16:18:25.763Z,63.60
2018-12-25T16:20:53.041Z,63.40
2018-12-25T16:23:20.620Z,64.20
2018-12-25T16:25:48.079Z,63.60
2018-12-25T16:28:15.697Z,64.30
2018-12-25T16:30:42.687Z,64.30
2018-12-25T16:33:11.103Z,63.50
2018-12-25T16:35:38.317Z,64.50
2018-12-25T16:38:05.999Z,63.40
2018-12-25T16:40:33.031Z,63.40
2018-12-25T16:43:02.358Z,63.40
2018-12-25T16:45:30.147Z,64.40
2018-12-25T16:47:58.780Z,63.70
2018-12-25T16:50:25.803Z,63.50
2018-12-25T16:52:53.089Z,63.10
2018-12-25T16:55:20.447Z,63.20
2018-12-25T16:57:47.864Z,63.90
2018-12-25T17:00:15.008Z,64.00
2018-12-25T17:02:42.674Z,63.60
2018-12-25T17:05:10.108Z,64.00
2018-12-25T17:07:37.760Z,65.00
2018-12-25T17:10:05.144Z,63.40
2018-12-25T17:12:32.232Z,63.40
2018-12-25T17:15:00.575Z,64.20
2018-12-25T17:17:28.551Z,64.30
2018-12-25T17:19:55.419Z,63.90
2018-12-25T17:22:23.232Z,64.10
2018-12-25T17:24:50.155Z,64.40
2018-12-25T17:27:17.931Z,64.30
2018-12-25T17:29:45.781Z,64.00
2018-12-25T17:32:14.547Z,64.20
2018-12-25T17:34:42.364Z,64.00
2018-12-25T17:37:10.021Z,63.70
2018-12-25T17:39:37.425Z,63.90
2018-12-25T17:42:04.447Z,63.60
2018-12-25T17:44:31.980Z,64.10
2018-12-25T17:46:59.331Z,64.50
2018-12-25T17:49:26.955Z,64.00
2018-12-25T17:51:54.005Z,64.30
2018-12-25T17:54:20.901Z,63.70
2018-12-25T17:56:48.372Z,64.40
2018-12-25T17:59:15.633Z,64.40
2018-12-25T18:01:43.036Z,63.60
2018-12-25T18:04:10.312Z,63.90
2018-12-25T18:06:37.223Z,64.10
2018-12-25T18:09:05.285Z,63.70
2018-12-25T18:11:32.652Z,63.90
2018-12-25T18:14:00.108Z,63.60
2018-12-25T18:16:29.982Z,64.00
2018-12-25T18:18:56.899Z,64.00
2018-12-25T18:21:24.515Z,64.00
2018-12-25T18:23:52.046Z,64.20
2018-12-25T18:26:19.717Z,64.20
2018-12-25T18:28:47.338Z,65.20
2018-12-25T18:31:14.351Z,64.20
2018-12-25T18:33:41.646Z,64.40
2018-12-25T18:36:09.763Z,64.40
2018-12-25T18:38:37.343Z,64.50
2018-12-25T18:41:05.412Z,64.60
2018-12-25T18:43:32.693Z,64.70
2018-12-25T18:46:00.563Z,64.70
2018-12-25T18:48:29.176Z,65.10
2018-12-25T18:50:57.997Z,65.20
2018-12-25T18:53:28.209Z,65.30
2018-12-25T18:55:55.860Z,65.20
2018-12-25T18:58:23.623Z,65.30
2018-12-25T19:00:50.849Z,65.10
2018-12-25T19:03:18.949Z,65.20
2018-12-25T19:05:46.599Z,65.30
2018-12-25T19:08:13.612Z,65.40
2018-12-25T19:10:40.765Z,65.50
2018-12-25T19:13:08.365Z,65.20
2018-12-25T19:15:35.672Z,65.30
2018-12-25T19:18:04.059Z,65.60
2018-12-25T19:20:31.324Z,65.50
2018-12-25T19:22:59.339Z,65.30
2018-12-25T19:25:27.964Z,65.40
2018-12-25T19:27:54.919Z,65.10
2018-12-25T19:30:23.776Z,65.40
2018-12-25T19:32:50.931Z,65.30
2018-12-25T19:35:20.248Z,65.70
2018-12-25T19:37:48.216Z,65.40
2018-12-25T19:40:15.592Z,65.60
2018-12-25T19:42:43.678Z,65.70
2018-12-25T19:45:11.085Z,65.10
2018-12-25T19:47:38.398Z,65.80
2018-12-25T19:50:06.044Z,65.50
2018-12-25T19:52:33.788Z,65.70
2018-12-25T19:55:01.566Z,65.90
2018-12-25T19:57:29.520Z,66.00
2018-12-25T19:59:57.264Z,66.20
2018-12-25T20:02:27.064Z,65.60
2018-12-25T20:05:28.262Z,65.60
2018-12-25T20:08:40.040Z,65.50
2018-12-25T20:11:53.011Z,65.60
2018-12-25T20:15:10.071Z,65.60
2018-12-25T20:17:58.740Z,65.80
2018-12-25T20:20:55.791Z,65.80
2018-12-25T20:24:01.643Z,65.60
2018-12-25T20:26:59.401Z,65.60
2018-12-25T20:30:04.958Z,65.90
2018-12-25T20:32:58.340Z,66.00
2018-12-25T20:36:08.235Z,66.10
2018-12-25T20:39:07.547Z,66.60
2018-12-25T20:42:27.768Z,66.80
2018-12-25T20:45:36.984Z,66.80
2018-12-25T20:48:40.375Z,66.90
2018-12-25T20:51:45.700Z,66.80
2018-12-25T20:54:26.012Z,67.30
2018-12-25T20:57:41.576Z,67.60
2018-12-25T21:00:42.324Z,67.30
2018-12-25T21:03:58.644Z,66.70
2018-12-25T21:07:36.231Z,67.30
2018-12-25T21:10:57.864Z,66.90
2018-12-25T21:14:18.700Z,67.10
2018-12-25T21:17:30.674Z,66.80
2018-12-25T21:20:33.255Z,67.30
2018-12-25T21:23:37.603Z,66.80
2018-12-25T21:26:42.205Z,66.60
2018-12-25T21:29:10.137Z,67.00
2018-12-25T21:31:37.668Z,67.00
2018-12-25T21:34:05.868Z,67.00
2018-12-25T21:36:33.039Z,67.00
2018-12-25T21:39:00.807Z,66.50
2018-12-25T21:41:28.159Z,66.60
2018-12-25T21:43:56.732Z,66.20
2018-12-25T21:46:24.496Z,66.80
2018-12-25T21:48:52.240Z,66.30
2018-12-25T21:51:19.327Z,66.00
2018-12-25T21:53:46.652Z,65.80
2018-12-25T21:56:14.336Z,65.80
2018-12-25T21:58:42.815Z,65.70
2018-12-25T22:01:10.014Z,65.70
2018-12-25T22:03:37.671Z,65.50
2018-12-25T22:06:05.202Z,65.60
2018-12-25T22:08:32.700Z,65.50
2018-12-25T22:11:01.089Z,65.30
2018-12-25T22:13:29.323Z,65.30
2018-12-25T22:15:57.688Z,65.10
2018-12-25T22:18:25.397Z,65.20
2018-12-25T22:20:52.559Z,65.00
2018-12-25T22:23:19.956Z,65.00
2018-12-25T22:25:47.183Z,64.60
2018-12-25T22:28:14.380Z,64.70
2018-12-25T22:30:43.210Z,64.50
2018-12-25T22:33:10.847Z,64.70
2018-12-25T22:35:39.795Z,64.90
2018-12-25T22:38:06.948Z,64.70
2018-12-25T22:40:34.434Z,64.70
2018-12-25T22:43:03.808Z,64.90
2018-12-25T22:45:31.338Z,64.70
2018-12-25T22:47:58.580Z,64.70
2018-12-25T22:50:26.462Z,64.50
2018-12-25T22:52:53.586Z,64.50
2018-12-25T22:55:21.205Z,64.60
2018-12-25T22:57:48.340Z,65.10
2018-12-25T23:00:17.258Z,64.80
2018-12-25T23:02:44.303Z,64.20
2018-12-25T23:05:12.323Z,64.50
2018-12-25T23:07:39.500Z,64.50
2018-12-25T23:10:07.771Z,64.50
2018-12-25T23:12:34.976Z,64.60
2018-12-25T23:15:02.703Z,64.50
2018-12-25T23:17:30.643Z,64.30
2018-12-25T23:19:57.691Z,64.60
2018-12-25T23:22:25.121Z,64.40
2018-12-25T23:24:52.109Z,64.50
2018-12-25T23:27:19.568Z,64.40
2018-12-25T23:29:46.707Z,64.20
2018-12-25T23:32:14.907Z,64.20
2018-12-25T23:34:42.854Z,64.90
2018-12-25T23:37:11.080Z,63.90
2018-12-25T23:39:38.210Z,63.90
2018-12-25T23:42:05.748Z,64.00
2018-12-25T23:44:32.772Z,64.40
2018-12-25T23:47:00.139Z,64.10
2018-12-25T23:49:28.052Z,64.20
2018-12-25T23:51:55.379Z,64.20
2018-12-25T23:54:23.401Z,64.20
2018-12-25T23:56:50.551Z,64.20
2018-12-25T23:59:18.289Z,64.00
